createdAt,value
2018-07-12T00:02:14.696Z,23.87
2018-07-12T00:04:41.614Z,23.70
2018-07-12T00:07:08.455Z,23.63
2018-07-12T00:09:35.396Z,22.60
2018-07-12T00:12:02.139Z,23.43
2018-07-12T00:14:29.102Z,23.97
2018-07-12T00:16:55.876Z,25.53
2018-07-12T00:19:22.670Z,22.93
2018-07-12T00:21:49.418Z,23.50
2018-07-12T00:24:16.264Z,22.90
2018-07-12T00:26:43.096Z,22.13
2018-07-12T00:29:09.835Z,23.50
2018-07-12T00:31:36.599Z,22.80
2018-07-12T00:34:03.346Z,22.77
2018-07-12T00:36:30.118Z,25.03
2018-07-12T00:38:57.005Z,24.60
2018-07-12T00:41:23.832Z,22.73
2018-07-12T00:43:50.703Z,22.93
2018-07-12T00:46:17.431Z,24.60
2018-07-12T00:48:44.174Z,22.70
2018-07-12T00:51:10.930Z,23.20
2018-07-12T00:53:37.675Z,21.00
2018-07-12T00:56:04.483Z,22.97
2018-07-12T00:58:31.257Z,21.40
2018-07-12T01:00:57.994Z,22.07
2018-07-12T01:03:24.794Z,22.10
2018-07-12T01:05:51.566Z,23.43
2018-07-12T01:08:18.306Z,22.80
2018-07-12T01:10:45.051Z,24.20
2018-07-12T01:13:11.779Z,22.43
2018-07-12T01:15:38.584Z,23.80
2018-07-12T01:18:05.327Z,24.10
2018-07-12T01:20:32.303Z,22.97
2018-07-12T01:22:59.994Z,22.90
2018-07-12T01:25:26.747Z,22.77
2018-07-12T01:27:53.480Z,21.37
2018-07-12T01:30:20.279Z,21.50
2018-07-12T01:32:47.035Z,23.77
2018-07-12T01:35:13.850Z,22.17
2018-07-12T01:37:40.631Z,22.43
2018-07-12T01:40:07.386Z,21.57
2018-07-12T01:42:34.184Z,23.03
2018-07-12T01:45:00.953Z,21.03
2018-07-12T01:47:27.729Z,21.83
2018-07-12T01:49:54.627Z,20.33
2018-07-12T01:52:21.687Z,20.30
2018-07-12T01:54:48.435Z,19.60
2018-07-12T01:57:15.336Z,19.37
2018-07-12T01:59:42.124Z,18.20
2018-07-12T02:02:08.912Z,19.40
2018-07-12T02:04:35.658Z,20.23
2018-07-12T02:07:02.587Z,16.73
2018-07-12T02:09:29.364Z,17.10
2018-07-12T02:11:56.114Z,17.70
2018-07-12T02:14:22.851Z,17.80
2018-07-12T02:16:49.683Z,17.10
2018-07-12T02:19:16.504Z,16.27
2018-07-12T02:21:43.275Z,15.60
2018-07-12T02:24:10.091Z,16.30
2018-07-12T02:26:36.846Z,16.00
2018-07-12T02:29:03.676Z,16.03
2018-07-12T02:31:30.411Z,16.07
2018-07-12T02:33:57.168Z,16.50
2018-07-12T02:36:23.899Z,16.93
2018-07-12T02:38:50.771Z,16.17
2018-07-12T02:41:17.680Z,16.10
2018-07-12T02:43:44.539Z,16.27
2018-07-12T02:46:11.271Z,16.87
2018-07-12T02:48:38.525Z,15.20
2018-07-12T02:51:05.284Z,16.17
2018-07-12T02:53:32.024Z,16.13
2018-07-12T02:55:58.849Z,16.13
2018-07-12T02:58:25.595Z,16.63
2018-07-12T03:00:52.363Z,16.30
2018-07-12T03:03:19.171Z,16.30
2018-07-12T03:05:45.938Z,17.30
2018-07-12T03:08:12.748Z,16.90
2018-07-12T03:10:39.614Z,17.50
2018-07-12T03:13:06.619Z,15.30
2018-07-12T03:15:33.376Z,17.80
2018-07-12T03:18:00.249Z,18.40
2018-07-12T03:20:27.020Z,17.40
2018-07-12T03:22:53.807Z,17.00
2018-07-12T03:25:20.663Z,18.03
2018-07-12T03:27:47.448Z,17.13
2018-07-12T03:30:14.237Z,18.57
2018-07-12T03:32:40.965Z,17.90
2018-07-12T03:35:07.824Z,19.27
2018-07-12T03:37:34.554Z,20.03
2018-07-12T03:40:01.301Z,19.67
2018-07-12T03:42:28.080Z,19.10
2018-07-12T03:44:54.824Z,18.90
2018-07-12T03:47:21.584Z,19.40
2018-07-12T03:49:48.461Z,19.83
2018-07-12T03:52:15.300Z,18.20
2018-07-12T03:54:42.142Z,17.47
2018-07-12T03:57:08.880Z,19.50
2018-07-12T03:59:35.642Z,20.27
2018-07-12T04:02:02.539Z,20.10
2018-07-12T04:04:29.293Z,20.43
2018-07-12T04:06:56.232Z,18.30
2018-07-12T04:09:23.025Z,19.90
2018-07-12T04:11:49.920Z,21.20
2018-07-12T04:14:16.745Z,21.00
2018-07-12T04:16:43.590Z,21.57
2018-07-12T04:19:10.372Z,20.43
2018-07-12T04:21:37.302Z,20.57
2018-07-12T04:24:04.056Z,19.30
2018-07-12T04:26:30.804Z,22.80
2018-07-12T04:28:57.614Z,20.40
2018-07-12T04:31:24.341Z,22.00
2018-07-12T04:33:51.226Z,22.07
2018-07-12T04:36:18.056Z,21.10
2018-07-12T04:38:44.803Z,22.40
2018-07-12T04:41:11.557Z,22.43
2018-07-12T04:43:38.362Z,22.53
2018-07-12T04:46:05.127Z,23.60
2018-07-12T04:48:32.076Z,22.60
2018-07-12T04:50:58.832Z,22.80
2018-07-12T04:53:25.736Z,22.53
2018-07-12T04:55:52.675Z,21.90
2018-07-12T04:58:19.554Z,21.60
2018-07-12T05:00:46.279Z,21.80
2018-07-12T05:03:13.012Z,22.40
2018-07-12T05:05:39.759Z,22.10
2018-07-12T05:08:06.577Z,21.40
2018-07-12T05:10:33.306Z,20.90
2018-07-12T05:13:00.160Z,19.50
2018-07-12T05:15:26.887Z,21.60
2018-07-12T05:17:53.639Z,19.10
2018-07-12T05:20:20.716Z,18.70
2018-07-12T05:22:47.642Z,20.67
2018-07-12T05:25:14.384Z,20.33
2018-07-12T05:27:41.131Z,18.80
2018-07-12T05:30:07.979Z,19.50
2018-07-12T05:32:34.794Z,18.40
2018-07-12T05:35:01.567Z,20.03
2018-07-12T05:37:28.917Z,20.90
2018-07-12T05:39:56.540Z,20.20
2018-07-12T05:42:24.099Z,20.60
2018-07-12T05:44:51.557Z,18.47
2018-07-12T05:47:18.919Z,17.40
2018-07-12T05:49:46.297Z,18.80
2018-07-12T05:52:13.715Z,17.50
2018-07-12T05:54:41.050Z,19.33
2018-07-12T05:57:08.598Z,18.67
2018-07-12T05:59:36.020Z,18.77
2018-07-12T06:02:09.039Z,17.13
2018-07-12T06:04:36.582Z,18.67
2018-07-12T06:07:04.114Z,16.10
2018-07-12T06:09:31.423Z,16.73
2018-07-12T06:11:58.777Z,18.67
2018-07-12T06:14:26.160Z,18.53
2018-07-12T06:16:53.642Z,17.53
2018-07-12T06:19:21.036Z,17.40
2018-07-12T06:21:48.438Z,16.97
2018-07-12T06:24:15.791Z,17.20
2018-07-12T06:26:43.163Z,18.17
2018-07-12T06:29:10.539Z,21.03
2018-07-12T06:31:37.883Z,20.13
2018-07-12T06:34:05.266Z,20.60
2018-07-12T06:36:32.620Z,18.50
2018-07-12T06:38:59.963Z,20.60
2018-07-12T06:41:27.290Z,20.63
2018-07-12T06:43:54.809Z,21.40
2018-07-12T06:46:22.124Z,22.10
2018-07-12T06:48:49.540Z,22.83
2018-07-12T06:51:16.876Z,21.23
2018-07-12T06:53:44.231Z,21.90
2018-07-12T06:56:11.583Z,18.00
2018-07-12T06:58:38.952Z,19.47
2018-07-12T07:01:06.327Z,18.70
2018-07-12T07:03:33.858Z,18.03
2018-07-12T07:06:01.256Z,18.10
2018-07-12T07:08:28.551Z,19.57
2018-07-12T07:10:55.933Z,20.37
2018-07-12T07:13:23.431Z,20.50
2018-07-12T07:15:50.791Z,20.23
2018-07-12T07:18:18.471Z,22.07
2018-07-12T07:20:52.455Z,21.40
2018-07-12T07:23:20.198Z,20.87
2018-07-12T07:25:47.842Z,19.97
2018-07-12T07:28:15.644Z,19.40
2018-07-12T07:30:43.039Z,17.93
2018-07-12T07:33:10.638Z,16.53
2018-07-12T07:35:38.053Z,14.60
2018-07-12T07:38:05.574Z,16.77
2018-07-12T07:40:33.214Z,15.10
2018-07-12T07:43:00.546Z,14.77
2018-07-12T07:45:27.883Z,13.10
2018-07-12T07:47:55.279Z,12.53
2018-07-12T07:50:22.734Z,12.63
2018-07-12T07:52:50.076Z,13.30
2018-07-12T07:55:17.539Z,12.93
2018-07-12T07:57:45.087Z,13.30
2018-07-12T08:00:12.461Z,11.73
2018-07-12T08:02:39.821Z,9.77
2018-07-12T08:05:07.344Z,12.93
2018-07-12T08:07:34.730Z,11.63
2018-07-12T08:10:02.052Z,13.10
2018-07-12T08:12:29.399Z,12.73
2018-07-12T08:14:56.735Z,11.83
2018-07-12T08:17:24.143Z,10.40
2018-07-12T08:19:51.566Z,10.73
2018-07-12T08:22:18.949Z,12.50
2018-07-12T08:24:46.292Z,9.40
2018-07-12T08:27:13.737Z,11.47
2018-07-12T08:29:41.071Z,15.00
2018-07-12T08:32:08.488Z,14.10
2018-07-12T08:34:35.835Z,14.70
2018-07-12T08:37:03.408Z,13.90
2018-07-12T08:39:30.641Z,13.50
2018-07-12T08:41:58.068Z,13.53
2018-07-12T08:44:25.515Z,15.23
2018-07-12T08:46:52.826Z,19.60
2018-07-12T08:49:20.260Z,18.37
2018-07-12T08:51:47.927Z,17.27
2018-07-12T08:54:15.656Z,18.60
2018-07-12T08:56:43.407Z,18.60
2018-07-12T08:59:10.904Z,16.60
2018-07-12T09:01:38.363Z,17.90
2018-07-12T09:04:05.772Z,16.93
2018-07-12T09:06:33.162Z,15.77
2018-07-12T09:09:00.634Z,15.90
2018-07-12T09:11:27.992Z,15.77
2018-07-12T09:13:55.327Z,13.97
2018-07-12T09:16:22.648Z,12.20
2018-07-12T09:18:50.108Z,9.70
2018-07-12T09:21:17.440Z,10.20
2018-07-12T09:23:44.885Z,10.33
2018-07-12T09:26:12.215Z,10.73
2018-07-12T09:28:39.564Z,11.43
2018-07-12T09:31:06.910Z,10.00
2018-07-12T09:33:34.244Z,9.10
2018-07-12T09:36:01.622Z,10.60
2018-07-12T09:38:34.595Z,11.90
2018-07-12T09:41:02.185Z,10.20
2018-07-12T09:43:29.908Z,10.43
2018-07-12T09:45:57.280Z,9.27
2018-07-12T09:48:24.622Z,9.60
2018-07-12T09:50:52.028Z,9.63
2018-07-12T09:53:19.471Z,7.47
2018-07-12T09:55:46.827Z,8.37
2018-07-12T09:58:19.973Z,7.70
2018-07-12T10:00:52.891Z,7.50
2018-07-12T10:03:21.075Z,8.93
2018-07-12T10:05:53.824Z,9.17
2018-07-12T10:08:26.547Z,8.77
2018-07-12T10:10:59.372Z,7.47
2018-07-12T10:13:31.011Z,9.07
2018-07-12T10:16:08.872Z,7.70
2018-07-12T10:18:36.424Z,7.80
2018-07-12T10:21:03.745Z,9.67
2018-07-12T10:23:31.141Z,8.57
2018-07-12T10:25:58.723Z,9.47
2018-07-12T10:28:26.060Z,8.50
2018-07-12T10:30:53.373Z,8.90
2018-07-12T10:33:20.748Z,10.10
2018-07-12T10:35:49.120Z,9.77
2018-07-12T10:38:16.448Z,9.33
2018-07-12T10:40:43.981Z,10.93
2018-07-12T10:43:11.502Z,10.97
2018-07-12T10:45:39.150Z,9.97
2018-07-12T10:48:06.836Z,11.67
2018-07-12T10:50:34.268Z,11.57
2018-07-12T10:53:01.823Z,10.60
2018-07-12T10:55:29.223Z,10.07
2018-07-12T10:57:56.551Z,9.53
2018-07-12T11:00:23.890Z,8.87
2018-07-12T11:02:51.280Z,7.73
2018-07-12T11:05:18.999Z,10.70
2018-07-12T11:07:46.336Z,9.37
2018-07-12T11:10:13.676Z,9.07
2018-07-12T11:12:40.987Z,7.33
2018-07-12T11:15:08.532Z,8.60
2018-07-12T11:17:35.861Z,8.03
2018-07-12T11:20:03.288Z,8.17
2018-07-12T11:22:30.580Z,7.80
2018-07-12T11:24:57.952Z,8.17
2018-07-12T11:27:26.191Z,8.67
2018-07-12T11:29:54.909Z,8.70
2018-07-12T11:32:22.302Z,8.13
2018-07-12T11:34:50.032Z,8.60
2018-07-12T11:37:19.103Z,8.90
2018-07-12T11:39:46.496Z,8.40
2018-07-12T11:42:13.859Z,7.70
2018-07-12T11:44:41.274Z,8.70
2018-07-12T11:47:08.639Z,8.77
2018-07-12T11:49:35.966Z,8.93
2018-07-12T11:52:03.462Z,9.20
2018-07-12T11:54:30.795Z,7.23
2018-07-12T11:56:58.162Z,8.13
2018-07-12T11:59:25.614Z,8.90
2018-07-12T12:01:53.053Z,6.60
2018-07-12T12:04:20.425Z,5.97
2018-07-12T12:06:47.923Z,5.47
2018-07-12T12:09:15.286Z,4.73
2018-07-12T12:11:42.703Z,5.20
2018-07-12T12:14:10.020Z,6.27
2018-07-12T12:16:37.431Z,6.90
2018-07-12T12:19:04.752Z,5.50
2018-07-12T12:21:32.151Z,5.80
2018-07-12T12:23:59.555Z,4.70
2018-07-12T12:26:27.064Z,4.83
2018-07-12T12:28:55.315Z,5.03
2018-07-12T12:31:22.757Z,5.10
2018-07-12T12:33:50.243Z,5.20
2018-07-12T12:36:17.577Z,5.20
2018-07-12T12:38:44.916Z,4.67
2018-07-12T12:41:12.248Z,6.30
2018-07-12T12:43:39.746Z,4.57
2018-07-12T12:46:07.203Z,5.63
2018-07-12T12:48:34.556Z,6.27
2018-07-12T12:51:01.879Z,6.57
2018-07-12T12:53:29.288Z,5.63
2018-07-12T12:55:56.638Z,6.77
2018-07-12T12:58:24.030Z,5.93
2018-07-12T13:00:51.396Z,5.93
2018-07-12T13:03:18.764Z,5.67
2018-07-12T13:05:46.124Z,5.27
2018-07-12T13:08:13.588Z,7.03
2018-07-12T13:10:41.047Z,6.40
2018-07-12T13:13:08.360Z,6.40
2018-07-12T13:15:35.862Z,6.13
2018-07-12T13:18:03.279Z,5.97
2018-07-12T13:20:30.816Z,4.20
2018-07-12T13:22:58.137Z,5.33
2018-07-12T13:25:25.528Z,5.47
2018-07-12T13:27:52.996Z,3.67
2018-07-12T13:30:20.571Z,5.13
2018-07-12T13:32:48.062Z,4.50
2018-07-12T13:35:15.625Z,6.93
2018-07-12T13:37:43.188Z,8.30
2018-07-12T13:40:10.504Z,6.07
2018-07-12T13:42:37.977Z,5.53
2018-07-12T13:45:05.395Z,5.20
2018-07-12T13:47:32.848Z,3.00
2018-07-12T13:50:00.239Z,3.70
2018-07-12T13:52:27.588Z,5.23
2018-07-12T13:54:54.924Z,5.30
2018-07-12T13:57:22.253Z,6.37
2018-07-12T13:59:49.570Z,7.70
2018-07-12T14:02:16.907Z,5.80
2018-07-12T14:04:44.240Z,4.83
2018-07-12T14:07:11.600Z,5.10
2018-07-12T14:09:38.912Z,5.87
2018-07-12T14:12:06.334Z,5.10
2018-07-12T14:14:33.676Z,3.80
2018-07-12T14:17:01.036Z,5.07
2018-07-12T14:19:28.500Z,4.63
2018-07-12T14:21:55.840Z,4.00
2018-07-12T14:24:23.492Z,3.10
2018-07-12T14:26:50.982Z,2.90
2018-07-12T14:29:18.311Z,4.23
2018-07-12T14:31:45.852Z,4.00
2018-07-12T14:34:13.240Z,4.77
2018-07-12T14:36:40.784Z,3.60
2018-07-12T14:39:08.669Z,3.90
2018-07-12T14:41:36.257Z,3.57
2018-07-12T14:44:03.576Z,4.10
2018-07-12T14:46:30.899Z,4.17
2018-07-12T14:48:58.375Z,4.10
2018-07-12T14:51:25.688Z,3.73
2018-07-12T14:53:53.188Z,3.80
2018-07-12T14:56:20.661Z,3.47
2018-07-12T14:58:48.127Z,3.33
2018-07-12T15:01:15.479Z,3.70
2018-07-12T15:03:43.009Z,3.70
2018-07-12T15:06:10.444Z,3.57
2018-07-12T15:08:37.848Z,3.37
2018-07-12T15:11:05.195Z,3.00
2018-07-12T15:13:32.543Z,3.33
2018-07-12T15:16:00.009Z,3.70
2018-07-12T15:18:27.461Z,3.23
2018-07-12T15:20:54.827Z,3.50
2018-07-12T15:23:22.264Z,3.00
2018-07-12T15:25:49.613Z,3.47
2018-07-12T15:28:16.979Z,3.77
2018-07-12T15:30:44.336Z,3.13
2018-07-12T15:33:11.679Z,3.30
2018-07-12T15:35:39.256Z,3.77
2018-07-12T15:38:06.592Z,3.47
2018-07-12T15:40:33.961Z,3.20
2018-07-12T15:43:01.519Z,3.20
2018-07-12T15:45:29.044Z,3.67
2018-07-12T15:47:56.391Z,3.60
2018-07-12T15:50:25.595Z,3.57
2018-07-12T15:52:53.128Z,4.00
2018-07-12T15:55:20.527Z,2.90
2018-07-12T15:57:48.168Z,3.40
2018-07-12T16:00:15.614Z,3.67
2018-07-12T16:02:42.983Z,3.60
2018-07-12T16:05:10.377Z,3.80
2018-07-12T16:07:37.775Z,3.93
2018-07-12T16:10:05.188Z,3.50
2018-07-12T16:12:32.597Z,3.17
2018-07-12T16:15:00.021Z,3.30
2018-07-12T16:17:27.408Z,3.10
2018-07-12T16:19:54.884Z,3.03
2018-07-12T16:22:22.237Z,3.10
2018-07-12T16:24:49.634Z,2.80
2018-07-12T16:27:17.168Z,3.13
2018-07-12T16:29:44.540Z,3.33
2018-07-12T16:32:11.943Z,3.67
2018-07-12T16:34:39.361Z,2.90
2018-07-12T16:37:06.736Z,3.23
2018-07-12T16:39:34.061Z,2.47
2018-07-12T16:42:01.561Z,2.70
2018-07-12T16:44:28.973Z,3.40
2018-07-12T16:46:56.394Z,3.20
2018-07-12T16:49:23.740Z,3.50
2018-07-12T16:51:51.141Z,2.90
2018-07-12T16:54:18.549Z,3.87
2018-07-12T16:56:45.920Z,2.77
2018-07-12T16:59:13.335Z,3.30
2018-07-12T17:01:40.752Z,3.30
2018-07-12T17:04:08.128Z,3.67
2018-07-12T17:06:35.626Z,3.93
2018-07-12T17:09:03.607Z,4.53
2018-07-12T17:11:30.996Z,4.40
2018-07-12T17:13:58.452Z,6.23
2018-07-12T17:16:25.852Z,5.40
2018-07-12T17:18:53.188Z,3.93
2018-07-12T17:21:20.544Z,4.23
2018-07-12T17:23:47.987Z,3.90
2018-07-12T17:26:15.284Z,3.90
2018-07-12T17:28:42.680Z,4.33
2018-07-12T17:31:10.073Z,4.97
2018-07-12T17:33:37.533Z,5.83
2018-07-12T17:36:05.040Z,5.80
2018-07-12T17:38:32.460Z,5.60
2018-07-12T17:40:59.839Z,6.47
2018-07-12T17:43:27.380Z,5.67
2018-07-12T17:45:54.819Z,5.27
2018-07-12T17:48:22.236Z,4.53
2018-07-12T17:50:49.584Z,5.03
2018-07-12T17:53:16.924Z,5.70
2018-07-12T17:55:44.298Z,5.90
2018-07-12T17:58:11.943Z,5.70
2018-07-12T18:00:39.619Z,6.40
2018-07-12T18:03:06.975Z,6.60
2018-07-12T18:05:34.452Z,5.50
2018-07-12T18:08:01.751Z,5.40
2018-07-12T18:10:30.045Z,5.37
2018-07-12T18:12:57.535Z,5.80
2018-07-12T18:15:25.148Z,6.13
2018-07-12T18:17:52.512Z,5.60
2018-07-12T18:20:20.171Z,6.07
2018-07-12T18:22:47.826Z,5.70
2018-07-12T18:25:15.250Z,7.17
2018-07-12T18:27:42.622Z,6.67
2018-07-12T18:30:10.031Z,6.80
2018-07-12T18:32:37.901Z,6.30
2018-07-12T18:35:05.399Z,6.27
2018-07-12T18:37:32.768Z,5.80
2018-07-12T18:40:00.137Z,5.60
2018-07-12T18:42:27.864Z,4.97
2018-07-12T18:44:55.419Z,4.97
2018-07-12T18:47:22.945Z,5.57
2018-07-12T18:49:51.396Z,5.10
2018-07-12T18:52:18.835Z,5.00
2018-07-12T18:54:46.389Z,6.70
2018-07-12T18:57:13.997Z,6.33
2018-07-12T18:59:41.481Z,6.50
2018-07-12T19:02:08.887Z,6.87
2018-07-12T19:04:36.353Z,7.37
2018-07-12T19:07:03.677Z,7.60
2018-07-12T19:09:31.157Z,7.77
2018-07-12T19:11:58.512Z,7.77
2018-07-12T19:14:25.904Z,8.73
2018-07-12T19:16:53.309Z,9.47
2018-07-12T19:19:20.690Z,9.50
2018-07-12T19:21:48.148Z,9.60
2018-07-12T19:24:15.700Z,7.80
2018-07-12T19:26:43.064Z,8.20
2018-07-12T19:29:10.388Z,6.57
2018-07-12T19:31:37.782Z,5.63
2018-07-12T19:34:05.146Z,6.60
2018-07-12T19:36:32.636Z,5.20
2018-07-12T19:39:00.096Z,5.47
2018-07-12T19:41:27.476Z,5.90
2018-07-12T19:43:54.803Z,5.73
2018-07-12T19:46:22.230Z,6.37
2018-07-12T19:48:49.703Z,5.97
2018-07-12T19:51:17.284Z,4.67
2018-07-12T19:53:44.847Z,4.90
2018-07-12T19:56:12.329Z,4.40
2018-07-12T19:58:39.695Z,4.30
2018-07-12T20:01:07.256Z,4.60
2018-07-12T20:03:34.674Z,5.67
2018-07-12T20:06:02.121Z,4.37
2018-07-12T20:08:29.580Z,5.00
2018-07-12T20:10:57.015Z,4.63
2018-07-12T20:13:24.373Z,4.57
2018-07-12T20:15:51.940Z,4.77
2018-07-12T20:18:19.482Z,4.33
2018-07-12T20:20:46.858Z,4.30
2018-07-12T20:23:14.398Z,4.20
2018-07-12T20:25:41.702Z,4.53
2018-07-12T20:28:09.140Z,3.77
2018-07-12T20:30:36.466Z,4.00
2018-07-12T20:33:03.949Z,3.90
2018-07-12T20:35:31.328Z,3.20
2018-07-12T20:37:58.679Z,3.97
2018-07-12T20:40:25.999Z,4.30
2018-07-12T20:42:53.463Z,3.70
2018-07-12T20:45:20.850Z,4.37
2018-07-12T20:47:48.173Z,4.10
2018-07-12T20:50:15.739Z,3.93
2018-07-12T20:52:43.215Z,4.50
2018-07-12T20:55:10.605Z,4.43
2018-07-12T20:57:38.075Z,4.47
2018-07-12T21:00:05.624Z,4.13
2018-07-12T21:02:33.224Z,4.63
2018-07-12T21:05:00.680Z,4.33
2018-07-12T21:07:28.051Z,4.13
2018-07-12T21:09:55.348Z,4.60
2018-07-12T21:12:22.850Z,4.60
2018-07-12T21:14:50.251Z,4.23
2018-07-12T21:17:17.831Z,4.43
2018-07-12T21:19:45.220Z,4.97
2018-07-12T21:22:12.655Z,5.03
2018-07-12T21:24:40.035Z,5.50
2018-07-12T21:27:07.479Z,4.60
2018-07-12T21:29:34.924Z,5.13
2018-07-12T21:32:02.367Z,5.90
2018-07-12T21:34:29.748Z,5.20
2018-07-12T21:36:57.069Z,5.07
2018-07-12T21:39:24.447Z,6.20
2018-07-12T21:41:51.950Z,5.10
2018-07-12T21:44:19.482Z,5.60
2018-07-12T21:46:46.771Z,5.70
2018-07-12T21:49:14.081Z,6.10
2018-07-12T21:51:41.567Z,5.80
2018-07-12T21:54:09.102Z,5.60
2018-07-12T21:56:36.615Z,5.50
2018-07-12T21:59:04.029Z,5.83
2018-07-12T22:01:31.356Z,5.53
2018-07-12T22:03:59.047Z,6.67
2018-07-12T22:06:33.632Z,6.23
2018-07-12T22:09:01.084Z,6.47
2018-07-12T22:11:28.421Z,6.03
2018-07-12T22:13:55.994Z,6.60
2018-07-12T22:16:23.317Z,6.43
2018-07-12T22:18:50.716Z,6.77
2018-07-12T22:21:18.090Z,8.17
2018-07-12T22:23:45.478Z,7.67
2018-07-12T22:26:12.976Z,6.80
2018-07-12T22:28:40.322Z,6.37
2018-07-12T22:31:07.700Z,6.10
2018-07-12T22:33:35.033Z,5.27
2018-07-12T22:36:02.448Z,5.33
2018-07-12T22:38:29.839Z,5.00
2018-07-12T22:40:57.370Z,4.50
2018-07-12T22:43:24.696Z,4.80
2018-07-12T22:45:52.225Z,4.77
2018-07-12T22:48:19.705Z,5.33
2018-07-12T22:50:46.894Z,6.00
2018-07-12T22:53:14.215Z,5.23
2018-07-12T22:55:41.635Z,5.97
2018-07-12T22:58:09.004Z,5.90
2018-07-12T23:00:36.431Z,5.07
2018-07-12T23:03:03.784Z,4.90
2018-07-12T23:05:31.174Z,5.40
2018-07-12T23:07:58.482Z,5.07
2018-07-12T23:10:25.963Z,5.80
2018-07-12T23:12:53.345Z,5.23
2018-07-12T23:15:20.738Z,5.50
2018-07-12T23:17:48.135Z,5.07
2018-07-12T23:20:15.451Z,5.60
2018-07-12T23:22:42.852Z,6.20
2018-07-12T23:25:10.159Z,6.20
2018-07-12T23:27:37.604Z,6.50
2018-07-12T23:30:05.018Z,7.47
2018-07-12T23:32:32.444Z,7.20
2018-07-12T23:34:59.922Z,7.40
2018-07-12T23:37:27.259Z,8.60
2018-07-12T23:39:54.575Z,8.23
2018-07-12T23:42:21.880Z,6.40
2018-07-12T23:44:49.342Z,6.33
2018-07-12T23:47:16.696Z,7.07
2018-07-12T23:49:44.030Z,7.20
2018-07-12T23:52:11.328Z,7.20
2018-07-12T23:54:38.691Z,7.10
2018-07-12T23:57:05.995Z,7.60
2018-07-12T23:59:33.339Z,7.20
